Time;durP1;ratioP1;P1;durP2;ratioP2;P2;SDS_P1;SDS_P2;PMS_P1;PMS_P2;Temp;Humidity;BMP_temperature;BMP_pressure;BME280_temperature;BME280_humidity;BME280_pressure;Samples;Min_cycle;Max_cycle;Signal;HPM_P1;HPM_P2
2023/12/10 00:01:16;;;;;;;;;;;4.20;99.90;;;;;;4972667;28;20129;-59
2023/12/10 00:03:43;;;;;;;4.97;2.28;;;4.20;99.90;;;;;;4969822;28;19922;-59
2023/12/10 01:41:09;;;;;;;2.10;1.35;;;4.40;99.90;;;;;;4938930;29;20051;-58
2023/12/10 01:43:39;;;;;;;2.50;1.75;;;4.40;99.90;;;;;;4938601;29;20070;-59
2023/12/10 02:53:34;;;;;;;3.25;2.05;;;3.50;99.90;;;;;;4750481;26;20082;-58
2023/12/10 02:56:02;;;;;;;3.10;2.40;;;3.50;99.90;;;;;;4992145;28;20070;-59
2023/12/10 02:58:29;;;;;;;8.15;2.38;;;3.60;99.90;;;;;;4989170;28;20050;-59
2023/12/10 03:00:57;;;;;;;6.65;2.30;;;3.60;99.90;;;;;;4984163;28;20559;-59
2023/12/10 03:03:24;;;;;;;3.17;1.70;;;3.50;99.90;;;;;;4992937;28;20061;-58
2023/12/10 03:05:51;;;;;;;3.10;2.03;;;3.60;99.90;;;;;;4974164;28;20046;-58
2023/12/10 03:21:09;;;;;;;6.93;3.67;;;3.50;99.90;;;;;;3198386;23;20057;-59
2023/12/10 03:23:36;;;;;;;3.72;2.85;;;3.50;99.90;;;;;;4967777;28;20081;-59
2023/12/10 03:36:09;;;;;;;2.08;1.50;;;3.90;99.90;;;;;;4974824;28;20045;-58
2023/12/10 03:38:38;;;;;;;2.58;1.55;;;4.10;99.90;;;;;;5031303;28;20034;-58
2023/12/10 03:41:05;;;;;;;1.67;1.40;;;4.10;99.90;;;;;;5013809;28;20037;-58
2023/12/10 03:43:34;;;;;;;1.60;1.10;;;4.10;99.90;;;;;;5006694;28;20059;-59
2023/12/10 03:46:00;;;;;;;1.63;1.40;;;4.10;99.90;;;;;;5031082;28;20048;-57
2023/12/10 03:48:27;;;;;;;2.00;1.58;;;4.00;99.90;;;;;;5030487;28;20049;-59
2023/12/10 03:50:54;;;;;;;2.25;1.45;;;4.00;99.90;;;;;;5013144;28;20445;-59
2023/12/10 03:53:22;;;;;;;1.92;1.08;;;4.00;99.90;;;;;;5030254;28;20073;-59
2023/12/10 03:55:49;;;;;;;2.63;1.70;;;4.00;99.90;;;;;;5011336;28;20045;-58
2023/12/10 03:58:16;;;;;;;1.80;1.10;;;3.90;99.90;;;;;;5028880;28;20501;-58
2023/12/10 04:00:42;;;;;;;2.13;0.90;;;3.70;99.90;;;;;;5012837;28;20133;-59
2023/12/10 04:03:09;;;;;;;1.95;1.35;;;3.80;99.90;;;;;;5029731;28;20050;-59
2023/12/10 04:05:36;;;;;;;3.95;1.40;;;3.90;99.90;;;;;;5031488;28;20049;-59
2023/12/10 04:08:03;;;;;;;3.08;1.70;;;3.80;99.90;;;;;;5015576;28;20045;-59
2023/12/10 04:10:31;;;;;;;1.65;1.45;;;3.90;99.90;;;;;;5029865;28;20549;-59
2023/12/10 04:12:57;;;;;;;;;;;3.80;99.90;;;;;;5011677;28;20391;-59
2023/12/10 04:15:24;;;;;;;2.15;1.10;;;3.80;99.90;;;;;;5012109;28;19964;-59
2023/12/10 04:41:34;;;;;;;1.13;0.57;;;3.60;99.90;;;;;;3180844;23;20053;-59
2023/12/10 04:44:01;;;;;;;1.50;0.60;;;3.50;99.90;;;;;;5003545;28;20542;-59
2023/12/10 05:11:34;;;;;;;1.52;1.42;;;3.90;99.90;;;;;;4744333;26;20054;-59
2023/12/10 05:14:00;;;;;;;1.48;0.85;;;3.80;99.90;;;;;;4990863;28;20056;-58
2023/12/10 06:03:28;;;;;;;6.38;2.47;;;3.70;99.90;;;;;;5023680;28;20042;-59
2023/12/10 11:59:47;;;;;;;14.05;7.35;;;6.20;99.90;;;;;;4906426;29;20393;-64
2023/12/10 12:02:17;;;;;;;11.05;6.75;;;6.30;99.90;;;;;;4907293;29;20420;-64
2023/12/10 12:04:44;;;;;;;14.77;6.68;;;6.50;99.90;;;;;;4901777;29;20053;-64
2023/12/10 12:07:24;;;;;;;10.40;6.07;;;6.60;99.90;;;;;;4904690;29;20047;-66
2023/12/10 12:09:52;;;;;;;9.55;5.82;;;6.70;99.90;;;;;;4895023;29;20371;-65
2023/12/10 12:12:22;;;;;;;12.20;4.95;;;6.70;99.90;;;;;;4896116;29;20040;-65
2023/12/10 12:14:51;;;;;;;10.52;5.65;;;6.80;99.90;;;;;;4886211;29;20052;-66
2023/12/10 12:17:22;;;;;;;9.10;5.07;;;6.90;99.90;;;;;;4897150;29;20063;-65
2023/12/10 12:19:49;;;;;;;10.05;5.68;;;6.90;99.90;;;;;;4904171;29;20481;-65
2023/12/10 12:22:16;;;;;;;11.30;5.85;;;6.90;99.90;;;;;;4900836;29;20036;-65
2023/12/10 12:24:43;;;;;;;10.05;4.95;;;7.10;99.90;;;;;;4896094;29;20052;-66
2023/12/10 12:27:11;;;;;;;7.03;4.63;;;7.10;99.90;;;;;;4894991;29;20469;-66
2023/12/10 12:29:38;;;;;;;9.73;4.90;;;7.10;99.90;;;;;;4903331;29;20052;-66
2023/12/10 12:32:05;;;;;;;16.42;7.38;;;7.20;99.90;;;;;;4907137;29;20055;-66
2023/12/10 12:34:52;;;;;;;15.63;8.73;;;7.10;99.90;;;;;;4896808;29;20040;-66
2023/12/10 12:37:19;;;;;;;17.95;9.65;;;7.00;99.90;;;;;;4899116;29;20075;-64
2023/12/10 12:39:46;;;;;;;16.85;9.30;;;6.90;99.90;;;;;;4910600;29;20044;-66
2023/12/10 12:42:12;;;;;;;16.13;9.70;;;6.90;99.90;;;;;;4888218;29;20051;-66
2023/12/10 12:44:40;;;;;;;14.23;6.88;;;6.90;99.90;;;;;;4897450;29;20040;-65
2023/12/10 12:47:07;;;;;;;18.65;10.25;;;6.90;99.90;;;;;;4899184;29;20052;-63
2023/12/10 12:49:35;;;;;;;15.85;10.40;;;6.80;99.90;;;;;;4915179;29;20052;-64
2023/12/10 12:52:05;;;;;;;25.85;13.23;;;6.80;99.90;;;;;;4889320;29;20052;-64
2023/12/10 12:54:32;;;;;;;22.52;12.95;;;6.80;99.90;;;;;;4909941;29;20413;-64
2023/12/10 12:56:59;;;;;;;37.33;16.52;;;6.70;99.90;;;;;;4895684;29;20456;-66
2023/12/10 12:59:26;;;;;;;29.65;13.25;;;6.70;99.90;;;;;;4890195;29;20048;-65
2023/12/10 13:01:53;;;;;;;20.00;12.00;;;6.60;99.90;;;;;;4897744;29;20040;-65
2023/12/10 13:04:20;;;;;;;18.77;11.93;;;6.50;99.90;;;;;;4897371;29;20108;-65
2023/12/10 13:06:47;;;;;;;;;;;6.50;99.90;;;;;;4887848;29;20059;-65
2023/12/10 13:09:16;;;;;;;12.00;6.68;;;6.50;99.90;;;;;;4897763;29;19929;-65
2023/12/10 13:11:44;;;;;;;11.80;5.97;;;6.60;99.90;;;;;;4886414;29;20484;-65
2023/12/10 13:14:11;;;;;;;13.05;7.25;;;6.70;99.90;;;;;;4878308;29;20057;-64
2023/12/10 13:16:38;;;;;;;;;;;6.80;99.90;;;;;;4901971;29;20076;-64
2023/12/10 13:19:08;;;;;;;9.65;6.60;;;6.80;99.90;;;;;;4884136;29;20273;-66
2023/12/10 13:21:38;;;;;;;10.93;6.50;;;6.90;99.90;;;;;;4877524;29;20052;-64
2023/12/10 13:24:06;;;;;;;11.45;6.60;;;6.90;99.90;;;;;;4893931;29;20131;-66
2023/12/10 13:26:33;;;;;;;11.52;5.55;;;6.90;99.90;;;;;;4900982;29;20121;-65
2023/12/10 13:29:00;;;;;;;11.07;7.18;;;6.90;99.90;;;;;;4882401;29;20051;-64
2023/12/10 13:31:26;;;;;;;12.98;7.72;;;6.90;99.90;;;;;;4901398;29;20123;-65
2023/12/10 13:33:53;;;;;;;15.93;8.73;;;6.90;99.90;;;;;;4893139;29;20428;-64
2023/12/10 13:36:20;;;;;;;14.73;8.55;;;6.80;99.90;;;;;;4897484;29;20055;-64
2023/12/10 13:38:47;;;;;;;12.93;8.68;;;6.70;99.90;;;;;;4878286;29;20379;-64
2023/12/10 13:41:16;;;;;;;17.30;10.15;;;6.60;99.90;;;;;;4895047;29;20383;-66
2023/12/10 13:43:43;;;;;;;18.13;10.90;;;6.60;99.90;;;;;;4889507;29;20049;-66
2023/12/10 13:46:10;;;;;;;14.18;9.35;;;6.60;99.90;;;;;;4896470;29;20040;-66
2023/12/10 13:48:37;;;;;;;25.08;9.38;;;6.50;99.90;;;;;;4898205;29;20401;-64
2023/12/10 13:51:04;;;;;;;18.00;10.73;;;6.50;99.90;;;;;;4898088;29;20050;-66
2023/12/10 13:53:31;;;;;;;15.93;10.00;;;6.50;99.90;;;;;;4895814;29;20072;-64
2023/12/10 13:55:58;;;;;;;21.13;10.48;;;6.50;99.90;;;;;;4898275;29;20131;-66
2023/12/10 13:58:25;;;;;;;14.13;9.45;;;6.50;99.90;;;;;;4894103;29;20055;-66
2023/12/10 14:00:51;;;;;;;16.77;8.75;;;6.40;99.90;;;;;;4899510;29;20040;-65
2023/12/10 14:03:18;;;;;;;15.50;9.13;;;6.20;99.90;;;;;;4897318;29;20531;-65
2023/12/10 14:05:45;;;;;;;15.40;8.93;;;6.10;99.90;;;;;;4896973;29;20037;-65
2023/12/10 14:08:12;;;;;;;15.00;9.23;;;6.00;99.90;;;;;;4897413;29;20072;-66
2023/12/10 14:10:39;;;;;;;31.05;15.55;;;6.00;99.90;;;;;;4906280;29;20378;-66
2023/12/10 14:13:06;;;;;;;25.42;14.52;;;5.90;99.90;;;;;;4916427;29;20080;-66
2023/12/10 14:15:33;;;;;;;17.48;9.55;;;5.80;99.90;;;;;;4914686;29;20122;-66
2023/12/10 14:18:00;;;;;;;12.35;6.60;;;5.70;99.90;;;;;;4901115;29;20048;-65
2023/12/10 14:20:27;;;;;;;11.43;6.30;;;5.50;99.90;;;;;;4894417;29;20044;-65
2023/12/10 14:22:54;;;;;;;14.95;6.65;;;5.30;99.90;;;;;;4894450;29;20492;-65
2023/12/10 14:25:20;;;;;;;24.30;11.23;;;5.10;99.90;;;;;;4897696;29;20429;-65
2023/12/10 14:27:47;;;;;;;17.88;8.75;;;4.90;99.90;;;;;;4899604;29;20048;-65
2023/12/10 14:30:14;;;;;;;15.57;6.65;;;4.90;99.90;;;;;;4890265;29;20055;-65
2023/12/10 14:32:41;;;;;;;11.40;6.40;;;4.80;99.90;;;;;;4897589;29;20045;-65
2023/12/10 14:35:08;;;;;;;9.55;5.47;;;4.80;99.90;;;;;;4900824;29;20048;-68
2023/12/10 14:37:35;;;;;;;16.33;8.68;;;4.80;99.90;;;;;;4896973;29;20509;-65
2023/12/10 14:40:01;;;;;;;15.02;8.32;;;4.80;99.90;;;;;;4898319;29;20045;-65
2023/12/10 14:42:28;;;;;;;18.23;9.20;;;4.70;99.90;;;;;;4880984;29;20041;-65
2023/12/10 14:44:55;;;;;;;23.08;10.73;;;4.60;99.90;;;;;;4902671;29;20116;-65
2023/12/10 14:47:22;;;;;;;17.85;7.95;;;4.60;99.90;;;;;;4897959;29;20048;-65
2023/12/10 14:49:49;;;;;;;13.95;8.40;;;4.50;99.90;;;;;;4898060;29;20409;-65
2023/12/10 14:52:16;;;;;;;13.98;6.75;;;4.50;99.90;;;;;;4900524;29;20055;-65
2023/12/10 14:54:43;;;;;;;16.60;8.07;;;4.40;99.90;;;;;;4897644;29;20049;-65
2023/12/10 14:57:09;;;;;;;13.82;6.65;;;4.40;99.90;;;;;;4898547;29;20044;-64
2023/12/10 14:59:36;;;;;;;12.75;5.43;;;4.30;99.90;;;;;;4903303;29;20040;-64
2023/12/10 15:02:03;;;;;;;19.27;7.82;;;4.30;99.90;;;;;;4905070;29;20036;-64
2023/12/10 15:04:38;;;;;;;17.00;8.43;;;4.20;99.90;;;;;;4897982;29;20072;-64
2023/12/10 15:07:05;;;;;;;14.40;7.60;;;4.10;99.90;;;;;;4901835;29;20050;-64
2023/12/10 15:09:32;;;;;;;11.43;6.80;;;4.10;99.90;;;;;;4901836;29;20064;-64
2023/12/10 15:11:59;;;;;;;15.35;8.18;;;4.10;99.90;;;;;;4900484;29;20045;-64
2023/12/10 15:14:26;;;;;;;15.02;7.18;;;4.20;99.90;;;;;;4895361;29;20044;-64
2023/12/10 15:16:53;;;;;;;11.45;5.03;;;4.20;99.90;;;;;;4895803;29;20055;-64
2023/12/10 15:19:24;;;;;;;17.15;8.05;;;4.30;99.90;;;;;;4900399;29;20044;-64
2023/12/10 15:21:51;;;;;;;11.52;5.40;;;4.30;99.90;;;;;;4900940;29;20443;-64
2023/12/10 15:24:18;;;;;;;11.98;6.68;;;4.50;99.90;;;;;;4899482;29;20447;-64
2023/12/10 15:26:46;;;;;;;12.55;6.57;;;4.60;99.90;;;;;;4900864;29;20044;-64
2023/12/10 15:29:13;;;;;;;17.50;6.95;;;4.50;99.90;;;;;;4897638;29;20041;-64
2023/12/10 15:31:40;;;;;;;14.63;6.60;;;4.40;99.90;;;;;;4895819;29;20040;-64
2023/12/10 15:34:07;;;;;;;15.90;6.70;;;4.40;99.90;;;;;;4903775;29;20041;-64
2023/12/10 15:36:33;;;;;;;15.80;7.15;;;4.40;99.90;;;;;;4896685;29;20045;-64
2023/12/10 15:39:01;;;;;;;17.67;5.95;;;4.30;99.90;;;;;;4910816;29;20071;-64
2023/12/10 15:41:28;;;;;;;11.25;5.90;;;4.20;99.90;;;;;;4896568;29;20095;-64
2023/12/10 15:43:55;;;;;;;14.18;4.88;;;4.20;99.90;;;;;;4894035;29;20045;-64
2023/12/10 15:46:21;;;;;;;14.82;7.40;;;4.20;99.90;;;;;;4897603;29;20500;-64
2023/12/10 15:48:50;;;;;;;12.85;6.75;;;4.00;99.90;;;;;;4905134;29;20055;-64
2023/12/10 15:51:17;;;;;;;17.38;7.43;;;4.00;99.90;;;;;;4901489;29;20059;-64
2023/12/10 15:53:44;;;;;;;10.75;6.30;;;4.00;99.90;;;;;;4903326;29;20054;-64
2023/12/10 15:56:10;;;;;;;13.32;6.95;;;4.00;99.90;;;;;;4907267;29;20389;-64
2023/12/10 15:58:37;;;;;;;79.15;34.08;;;4.00;99.90;;;;;;4894940;29;20450;-64
2023/12/10 16:01:06;;;;;;;46.65;27.13;;;4.00;99.90;;;;;;4894958;29;20078;-64
2023/12/10 16:03:32;;;;;;;31.33;17.40;;;4.00;99.90;;;;;;4893572;29;20389;-64
2023/12/10 16:06:00;;;;;;;19.15;10.68;;;4.10;99.90;;;;;;4896322;29;20151;-64
2023/12/10 16:08:27;;;;;;;22.30;11.02;;;4.30;99.90;;;;;;4898411;29;20040;-64
2023/12/10 16:10:55;;;;;;;17.45;8.88;;;4.30;99.90;;;;;;4893741;29;20128;-64
2023/12/10 16:13:22;;;;;;;13.10;6.90;;;4.40;99.90;;;;;;4874725;29;20037;-64
2023/12/10 16:15:50;;;;;;;14.85;8.85;;;4.50;99.90;;;;;;4896990;29;20497;-64
2023/12/10 16:18:17;;;;;;;;;;;4.60;99.90;;;;;;4887759;29;20040;-64
2023/12/10 16:20:44;;;;;;;19.33;9.95;;;4.60;99.90;;;;;;4905656;29;20014;-64
2023/12/10 16:23:11;;;;;;;12.55;6.28;;;4.70;99.90;;;;;;4897622;29;20045;-64
2023/12/10 16:25:37;;;;;;;28.50;14.38;;;4.60;99.90;;;;;;4893635;29;20520;-64
2023/12/10 16:28:04;;;;;;;15.68;7.88;;;4.70;99.90;;;;;;4897157;29;20037;-64
2023/12/10 16:30:31;;;;;;;14.27;8.05;;;4.70;99.90;;;;;;4901014;29;20044;-64
2023/12/10 16:32:58;;;;;;;10.63;5.43;;;4.70;99.90;;;;;;4894548;29;20044;-64
2023/12/10 16:35:25;;;;;;;7.53;4.53;;;4.90;99.90;;;;;;4880177;29;20057;-64
2023/12/10 16:37:52;;;;;;;8.93;4.40;;;5.00;99.90;;;;;;4895998;29;20281;-64
2023/12/10 16:40:19;;;;;;;12.30;5.80;;;5.00;99.90;;;;;;4900934;29;20044;-64
2023/12/10 16:42:46;;;;;;;11.07;5.93;;;5.00;99.90;;;;;;4894602;29;20409;-64
2023/12/10 16:45:13;;;;;;;8.82;5.68;;;4.90;99.90;;;;;;4898781;29;20052;-64
2023/12/10 16:47:40;;;;;;;13.35;6.05;;;4.90;99.90;;;;;;4896157;29;20044;-64
2023/12/10 16:50:07;;;;;;;15.18;6.28;;;4.90;99.90;;;;;;4894535;29;20045;-64
2023/12/10 16:52:35;;;;;;;9.73;4.90;;;4.90;99.90;;;;;;4888666;29;20097;-63
2023/12/10 16:55:02;;;;;;;15.65;6.63;;;5.00;99.90;;;;;;4884298;29;20051;-64
2023/12/10 16:57:29;;;;;;;18.00;8.25;;;4.90;99.90;;;;;;4890836;29;20434;-66
2023/12/10 16:59:57;;;;;;;;;;;4.80;99.90;;;;;;4892843;29;20065;-65
2023/12/10 17:02:24;;;;;;;9.98;5.55;;;4.90;99.90;;;;;;4893315;29;19923;-65
2023/12/10 17:04:50;;;;;;;16.25;7.38;;;4.90;99.90;;;;;;4896554;29;20481;-65
2023/12/10 17:07:18;;;;;;;16.63;7.85;;;4.90;99.90;;;;;;4899136;29;20151;-65
2023/12/10 17:09:44;;;;;;;16.63;8.23;;;4.70;99.90;;;;;;4887957;29;20076;-64
2023/12/10 17:12:11;;;;;;;15.45;8.07;;;4.50;99.90;;;;;;4888323;29;20049;-64
2023/12/10 17:14:38;;;;;;;17.08;8.35;;;4.40;99.90;;;;;;4892958;29;20040;-64
2023/12/10 17:17:05;;;;;;;19.10;8.68;;;4.20;99.90;;;;;;4885716;29;20375;-65
2023/12/10 17:19:32;;;;;;;16.65;7.75;;;4.20;99.90;;;;;;4888102;29;20041;-62
2023/12/10 17:21:58;;;;;;;17.67;8.40;;;4.10;99.90;;;;;;4886785;29;20563;-62
2023/12/10 17:24:25;;;;;;;20.33;9.18;;;4.00;99.90;;;;;;4895274;29;20100;-64
2023/12/10 17:26:52;;;;;;;17.65;9.40;;;3.90;99.90;;;;;;4891476;29;20536;-64
2023/12/10 17:29:19;;;;;;;37.47;17.60;;;4.00;99.90;;;;;;4894491;29;20055;-64
2023/12/10 17:31:46;;;;;;;36.70;15.63;;;3.90;99.90;;;;;;4896794;29;20047;-64
2023/12/10 17:34:13;;;;;;;19.15;10.00;;;3.90;99.90;;;;;;4895648;29;20049;-64
2023/12/10 17:36:40;;;;;;;;;;;3.90;99.90;;;;;;4894367;29;20148;-61
2023/12/10 17:39:07;;;;;;;36.65;16.95;;;3.90;99.90;;;;;;4890569;29;19928;-62
2023/12/10 17:41:37;;;;;;;20.75;10.63;;;3.90;99.90;;;;;;4895946;29;20385;-64
2023/12/10 17:44:04;;;;;;;15.35;7.22;;;3.80;99.90;;;;;;4895005;29;20124;-64
2023/12/10 17:46:31;;;;;;;15.00;7.40;;;3.90;99.90;;;;;;4892464;29;20463;-64
2023/12/10 17:48:58;;;;;;;18.70;8.88;;;3.90;99.90;;;;;;4900932;29;20046;-65
2023/12/10 17:51:25;;;;;;;16.58;8.63;;;3.90;99.90;;;;;;4899001;29;20076;-66
2023/12/10 17:53:53;;;;;;;19.25;9.18;;;3.90;99.90;;;;;;4892185;29;20040;-65
2023/12/10 17:56:19;;;;;;;10.80;6.00;;;4.00;99.90;;;;;;4901213;29;20055;-63
2023/12/10 17:58:46;;;;;;;11.35;6.60;;;4.10;99.90;;;;;;4899144;29;20045;-65
2023/12/10 18:01:13;;;;;;;17.33;8.85;;;4.20;99.90;;;;;;4896737;29;20044;-65
2023/12/10 18:03:40;;;;;;;13.27;7.40;;;4.20;99.90;;;;;;4896153;29;20048;-66
2023/12/10 18:06:07;;;;;;;10.45;5.88;;;4.20;99.90;;;;;;4898905;29;20048;-66
2023/12/10 18:08:34;;;;;;;13.43;5.53;;;4.20;99.90;;;;;;4890436;29;20087;-65
2023/12/10 18:11:00;;;;;;;11.20;6.03;;;4.10;99.90;;;;;;4894934;29;20501;-66
2023/12/10 18:13:27;;;;;;;11.90;6.13;;;4.00;99.90;;;;;;4897923;29;20131;-65
2023/12/10 18:15:54;;;;;;;11.20;6.38;;;4.00;99.90;;;;;;4898046;29;20083;-65
2023/12/10 18:18:22;;;;;;;17.70;7.15;;;3.90;99.90;;;;;;4895973;29;20127;-65
2023/12/10 18:20:49;;;;;;;10.63;5.35;;;4.00;99.90;;;;;;4886596;29;20036;-65
2023/12/10 18:23:16;;;;;;;11.43;5.45;;;4.00;99.90;;;;;;4897595;29;20513;-65
2023/12/10 18:25:43;;;;;;;13.93;6.20;;;3.90;99.90;;;;;;4891552;29;20044;-65
2023/12/10 18:28:10;;;;;;;12.45;6.68;;;3.90;99.90;;;;;;4897555;29;20493;-66
2023/12/10 18:30:37;;;;;;;11.27;6.22;;;3.90;99.90;;;;;;4888345;29;20045;-65
2023/12/10 18:33:04;;;;;;;12.27;6.45;;;3.80;99.90;;;;;;4892288;29;20464;-66
2023/12/10 18:35:31;;;;;;;12.73;6.28;;;3.80;99.90;;;;;;4894940;29;20045;-66
2023/12/10 18:37:57;;;;;;;15.10;6.18;;;3.70;99.90;;;;;;4899986;29;20040;-65
2023/12/10 18:40:27;;;;;;;13.52;6.70;;;3.60;99.90;;;;;;4897797;29;20069;-66
2023/12/10 18:42:59;;;;;;;9.38;5.88;;;3.60;99.90;;;;;;4902038;29;20044;-64
2023/12/10 18:45:26;;;;;;;10.30;6.18;;;3.60;99.90;;;;;;4897937;29;20123;-66
2023/12/10 18:47:53;;;;;;;15.27;6.82;;;3.60;99.90;;;;;;4893233;29;20131;-65
2023/12/10 18:50:20;;;;;;;12.45;6.55;;;3.60;99.90;;;;;;4900366;29;20076;-66
2023/12/10 18:52:47;;;;;;;17.65;9.48;;;3.50;99.90;;;;;;4892066;29;20120;-66
2023/12/10 18:55:14;;;;;;;;;;;3.50;99.90;;;;;;4879467;29;20053;-66
2023/12/10 18:57:41;;;;;;;26.30;13.68;;;3.50;99.90;;;;;;4891809;29;19927;-66
2023/12/10 19:00:08;;;;;;;27.20;13.10;;;3.40;99.90;;;;;;4896759;29;20044;-66
2023/12/10 19:02:35;;;;;;;21.98;11.13;;;3.40;99.90;;;;;;4897114;29;20044;-66
2023/12/10 19:05:02;;;;;;;24.10;14.43;;;3.30;99.90;;;;;;4897950;29;20047;-65
2023/12/10 19:07:29;;;;;;;23.17;11.80;;;3.30;99.90;;;;;;4895051;29;20037;-64
2023/12/10 19:09:57;;;;;;;23.45;11.63;;;3.30;99.90;;;;;;4902811;29;20122;-65
2023/12/10 19:12:24;;;;;;;23.50;11.70;;;3.30;99.90;;;;;;4899760;29;20104;-65
2023/12/10 19:14:51;;;;;;;28.13;14.30;;;3.20;99.90;;;;;;4895881;29;20506;-66
2023/12/10 19:17:18;;;;;;;29.02;14.35;;;3.10;99.90;;;;;;4890631;29;20144;-65
2023/12/10 19:19:45;;;;;;;28.27;14.38;;;3.10;99.90;;;;;;4900793;29;20041;-65
2023/12/10 19:22:13;;;;;;;27.88;13.15;;;3.10;99.90;;;;;;4896300;29;20056;-65
2023/12/10 19:24:39;;;;;;;17.42;9.68;;;3.10;99.90;;;;;;4894257;29;20049;-65
2023/12/10 19:27:06;;;;;;;13.43;7.35;;;3.10;99.90;;;;;;4896804;29;20119;-65
2023/12/10 19:29:33;;;;;;;14.20;7.53;;;3.10;99.90;;;;;;4896138;29;20524;-64
2023/12/10 19:32:00;;;;;;;14.90;6.43;;;3.10;99.90;;;;;;4898448;29;20098;-66
2023/12/10 19:34:27;;;;;;;16.75;6.70;;;3.20;99.90;;;;;;4897641;29;20040;-64
2023/12/10 19:36:54;;;;;;;18.77;10.23;;;3.20;99.90;;;;;;4896504;29;20053;-64
2023/12/10 19:39:20;;;;;;;22.75;12.25;;;3.20;99.90;;;;;;4906175;29;20040;-66
2023/12/10 19:41:47;;;;;;;19.38;10.35;;;3.20;99.90;;;;;;4895450;29;20478;-65
2023/12/10 19:44:14;;;;;;;13.35;7.45;;;3.20;99.90;;;;;;4896375;29;20053;-64
2023/12/10 19:46:41;;;;;;;14.52;7.57;;;3.20;99.90;;;;;;4901355;29;20504;-64
2023/12/10 19:49:08;;;;;;;12.65;5.57;;;3.20;99.90;;;;;;4895699;29;20049;-65
2023/12/10 19:51:35;;;;;;;11.48;5.80;;;3.30;99.90;;;;;;4891687;29;20051;-65
2023/12/10 19:54:02;;;;;;;10.05;5.15;;;3.30;99.90;;;;;;4896260;29;20044;-65
2023/12/10 19:56:28;;;;;;;10.00;5.72;;;3.20;99.90;;;;;;4896934;29;20048;-65
2023/12/10 19:58:55;;;;;;;12.07;5.20;;;3.30;99.90;;;;;;4899039;29;20107;-66
2023/12/10 20:01:22;;;;;;;9.88;4.93;;;3.30;99.90;;;;;;4895444;29;20050;-65
2023/12/10 20:03:49;;;;;;;13.10;5.60;;;3.30;99.90;;;;;;4894119;29;20123;-65
2023/12/10 20:06:16;;;;;;;14.07;6.03;;;3.30;99.90;;;;;;4895888;29;20080;-65
2023/12/10 20:08:43;;;;;;;14.18;5.57;;;3.20;99.90;;;;;;4895704;29;20401;-66
2023/12/10 20:11:10;;;;;;;11.57;5.20;;;3.20;99.90;;;;;;4896736;29;20496;-65
2023/12/10 20:13:37;;;;;;;8.70;5.38;;;3.30;99.90;;;;;;4896211;29;20124;-64
2023/12/10 20:16:05;;;;;;;11.10;5.28;;;3.20;99.90;;;;;;4894245;29;20053;-65
2023/12/10 20:18:32;;;;;;;15.02;5.38;;;3.20;99.90;;;;;;4886997;29;20043;-65
2023/12/10 20:20:59;;;;;;;14.98;6.75;;;3.20;99.90;;;;;;4893078;29;20049;-65
2023/12/10 20:23:26;;;;;;;11.75;5.40;;;3.20;99.90;;;;;;4878766;29;20059;-65
2023/12/10 20:25:54;;;;;;;8.63;3.90;;;3.20;99.90;;;;;;4892352;29;20488;-65
2023/12/10 20:28:22;;;;;;;11.45;5.78;;;3.20;99.90;;;;;;4895404;29;20064;-65
2023/12/10 20:30:49;;;;;;;16.73;6.18;;;3.30;99.90;;;;;;4895592;29;20055;-65
2023/12/10 20:33:17;;;;;;;8.00;4.88;;;3.30;99.90;;;;;;4892974;29;20060;-65
2023/12/10 20:35:44;;;;;;;10.07;5.00;;;3.30;99.90;;;;;;4896074;29;20044;-65
2023/12/10 20:38:11;;;;;;;;;;;3.30;99.90;;;;;;4897719;29;20041;-65
2023/12/10 20:40:38;;;;;;;10.82;4.47;;;3.30;99.90;;;;;;4896087;29;19923;-65
2023/12/10 20:43:06;;;;;;;;;;;3.20;99.90;;;;;;4883376;29;20103;-65
2023/12/10 20:45:33;;;;;;;8.95;4.63;;;3.20;99.90;;;;;;4895437;29;19924;-65
2023/12/10 20:48:00;;;;;;;10.98;5.90;;;3.20;99.90;;;;;;4897339;29;20051;-65
2023/12/10 20:50:27;;;;;;;8.57;5.25;;;3.10;99.90;;;;;;4892561;29;20052;-63
2023/12/10 20:52:54;;;;;;;;;;;3.10;99.90;;;;;;4895225;29;20049;-63
2023/12/10 20:55:21;;;;;;;9.98;4.68;;;3.10;99.90;;;;;;4895075;29;20022;-63
2023/12/10 20:57:47;;;;;;;9.13;4.95;;;3.10;99.90;;;;;;4895965;29;20068;-66
2023/12/10 21:00:16;;;;;;;8.93;5.03;;;3.10;99.90;;;;;;4887779;29;20153;-66
2023/12/10 21:02:46;;;;;;;9.18;5.13;;;3.10;99.90;;;;;;4894788;29;20478;-62
2023/12/10 21:05:13;;;;;;;15.60;5.10;;;3.10;99.90;;;;;;4891191;29;20048;-63
2023/12/10 21:07:41;;;;;;;11.60;5.30;;;3.10;99.90;;;;;;4895724;29;20044;-65
2023/12/10 21:10:09;;;;;;;11.10;4.47;;;3.20;99.90;;;;;;4895880;29;20049;-65
2023/12/10 21:12:37;;;;;;;16.98;6.47;;;3.30;99.90;;;;;;4887476;29;20041;-65
2023/12/10 21:15:04;;;;;;;9.02;4.47;;;3.30;99.90;;;;;;4890387;29;20049;-64
2023/12/10 21:17:32;;;;;;;;;;;3.30;99.90;;;;;;4888317;29;20044;-65
2023/12/10 21:20:00;;;;;;;8.07;4.22;;;3.40;99.90;;;;;;4886418;29;19930;-65
2023/12/10 21:22:27;;;;;;;9.25;4.68;;;3.40;99.90;;;;;;4884567;29;20410;-65
2023/12/10 21:24:53;;;;;;;10.38;4.60;;;3.30;99.90;;;;;;4888096;29;20552;-65
2023/12/10 21:27:20;;;;;;;6.38;4.15;;;3.30;99.90;;;;;;4889939;29;20585;-65
2023/12/10 21:29:47;;;;;;;11.57;4.32;;;3.20;99.90;;;;;;4888292;29;20499;-65
2023/12/10 21:32:14;;;;;;;13.13;3.90;;;3.20;99.90;;;;;;4895061;29;20044;-65
2023/12/10 21:34:40;;;;;;;9.35;4.45;;;3.20;99.90;;;;;;4894507;29;20040;-65
2023/12/10 21:37:07;;;;;;;13.52;4.22;;;3.20;99.90;;;;;;4888527;29;20060;-64
2023/12/10 21:39:34;;;;;;;8.52;5.00;;;3.20;99.90;;;;;;4891190;29;20060;-65
2023/12/10 21:42:02;;;;;;;7.07;3.45;;;3.20;99.90;;;;;;4904239;29;20048;-65
2023/12/10 21:44:29;;;;;;;9.45;3.53;;;3.20;99.90;;;;;;4889114;29;20406;-67
2023/12/10 21:46:56;;;;;;;7.55;4.15;;;3.30;99.90;;;;;;4885611;29;20051;-65
2023/12/10 21:49:23;;;;;;;10.52;3.58;;;3.30;99.90;;;;;;4890569;29;20052;-65
2023/12/10 21:51:50;;;;;;;11.07;4.53;;;3.40;99.90;;;;;;4894180;29;20049;-64
2023/12/10 21:54:17;;;;;;;8.50;3.92;;;3.40;99.90;;;;;;4887646;29;20109;-64
2023/12/10 21:56:44;;;;;;;8.70;3.42;;;3.50;99.90;;;;;;4884570;29;20056;-63
2023/12/10 21:59:10;;;;;;;8.35;2.92;;;3.60;99.90;;;;;;4889232;29;20052;-65
2023/12/10 22:01:37;;;;;;;16.02;3.15;;;3.70;99.90;;;;;;4891702;29;20128;-65
2023/12/10 22:04:04;;;;;;;;;;;3.80;99.90;;;;;;4889627;29;20053;-64
2023/12/10 22:06:32;;;;;;;6.45;2.20;;;4.00;99.90;;;;;;4895820;29;20396;-65
2023/12/10 22:08:59;;;;;;;5.65;2.10;;;4.20;99.90;;;;;;4895890;29;20486;-66
2023/12/10 22:11:26;;;;;;;6.18;2.40;;;4.30;99.90;;;;;;4885614;29;20553;-65
2023/12/10 22:13:53;;;;;;;3.97;2.33;;;4.40;99.90;;;;;;4895782;29;20052;-65
2023/12/10 22:16:19;;;;;;;8.70;2.70;;;4.40;99.90;;;;;;4895449;29;20047;-65
2023/12/10 22:18:46;;;;;;;5.97;2.75;;;4.50;99.90;;;;;;4899022;29;20044;-66
2023/12/10 22:21:13;;;;;;;5.47;1.60;;;4.50;99.90;;;;;;4898030;29;20049;-65
2023/12/10 22:23:40;;;;;;;6.00;1.95;;;4.50;99.90;;;;;;4890089;29;20048;-66
2023/12/10 22:26:08;;;;;;;4.35;2.00;;;4.60;99.90;;;;;;4900091;29;20067;-67
2023/12/10 22:28:35;;;;;;;5.82;2.00;;;4.60;99.90;;;;;;4899775;29;20049;-67
2023/12/10 22:31:02;;;;;;;5.15;2.00;;;4.60;99.90;;;;;;4899395;29;20040;-67
2023/12/10 22:33:29;;;;;;;4.78;2.60;;;4.60;99.90;;;;;;4894723;29;20600;-67
2023/12/10 22:35:56;;;;;;;8.45;2.15;;;4.60;99.90;;;;;;4904758;29;20037;-67
2023/12/10 22:38:23;;;;;;;6.18;2.60;;;4.50;99.90;;;;;;4897201;29;20029;-67
2023/12/10 22:40:51;;;;;;;4.97;2.30;;;4.50;99.90;;;;;;4901806;29;20067;-67
2023/12/10 22:43:22;;;;;;;4.53;2.08;;;4.40;99.90;;;;;;4898526;29;20050;-67
2023/12/10 22:45:49;;;;;;;3.60;1.80;;;4.40;99.90;;;;;;4891906;29;20439;-67
2023/12/10 22:48:16;;;;;;;6.07;2.38;;;4.50;99.90;;;;;;4896035;29;20660;-67
2023/12/10 22:50:43;;;;;;;3.03;1.92;;;4.50;99.90;;;;;;4892648;29;20048;-67
2023/12/10 22:53:09;;;;;;;5.80;1.90;;;4.60;99.90;;;;;;4894440;29;20045;-67
2023/12/10 22:55:36;;;;;;;4.82;2.35;;;4.60;99.90;;;;;;4898416;29;20041;-67
2023/12/10 22:58:03;;;;;;;3.17;1.80;;;4.60;99.90;;;;;;4900594;29;20508;-67
2023/12/10 23:00:30;;;;;;;5.93;3.03;;;4.60;99.90;;;;;;4892450;29;20424;-65
2023/12/10 23:02:57;;;;;;;3.67;2.35;;;4.70;99.90;;;;;;4898668;29;20040;-66
2023/12/10 23:05:24;;;;;;;3.83;2.30;;;4.70;99.90;;;;;;4881006;29;20143;-66
2023/12/10 23:07:51;;;;;;;4.32;2.33;;;4.60;99.90;;;;;;4897708;29;20093;-67
2023/12/10 23:10:17;;;;;;;6.70;2.53;;;4.60;99.90;;;;;;4899844;29;20127;-65
2023/12/10 23:12:45;;;;;;;5.22;2.80;;;4.60;99.90;;;;;;4890454;29;20072;-66
2023/12/10 23:15:15;;;;;;;4.75;2.33;;;4.50;99.90;;;;;;4880960;29;20104;-65
2023/12/10 23:17:42;;;;;;;3.88;2.17;;;4.60;99.90;;;;;;4897038;29;20064;-65
2023/12/10 23:20:11;;;;;;;3.22;1.40;;;4.70;99.90;;;;;;4895601;29;20044;-65
2023/12/10 23:22:38;;;;;;;4.82;1.60;;;4.80;99.90;;;;;;4897815;29;20053;-66
2023/12/10 23:25:06;;;;;;;3.05;1.60;;;4.90;99.90;;;;;;4897181;29;20055;-67
2023/12/10 23:27:33;;;;;;;4.28;1.50;;;5.00;99.90;;;;;;4879444;29;20045;-67